Cemal Kaptan — TCUW — position and weather

sailwx.info

Track history (hours):
 
Tides and Currents Weather Stations Pressure Air Temp Water Temp Dewpoint Dewpoint Depression Visibility Wind Speed Wind Dir Waves Ship Positions

Cemal Kaptan

Last reported at 2018-May-07 14:31 UTC. Time now 2018-May-20 10:25 UTC.
Position N 40°51' E 029°16'.
Warning: this ship's position is 12 days out of date.

Length 107 m; draft 3.8 m.

Type: Cargo ship. MMSI: 271002256.

Date/timePositionNaut miles runAvg speedWind from/ knotsBaromVisibWave heightAir tempDewpointWater temp
2018-May-07 14:31N 40°51' E 029°16'0 0.0
2018-May-07 14:28N 40°51' E 029°16'0 0.0
2018-May-07 14:00N 40°51' E 029°16'0 0.7
2018-May-07 13:30N 40°51' E 029°16'2 4.8
2018-May-07 13:00N 40°50' E 029°13'510.8
2018-May-07 12:30N 40°47' E 029°07'611.5
2018-May-07 11:58N 40°43' E 029°01'610.9
2018-May-07 11:26N 40°41' E 028°54'  
2018-May-02 09:25N 39°32' E 025°58'138 4.4
2018-May-01 02:17N 40°40' E 028°36'5 9.5
2018-May-01 01:49N 40°39' E 028°30'3 9.4
2018-May-01 01:30N 40°39' E 028°26'5 9.5
2018-May-01 01:00N 40°38' E 028°20'5 9.3
2018-May-01 00:29N 40°37' E 028°14'4 9.2
2018-May-01 00:00N 40°37' E 028°08'5 9.4
2018-Apr-30 23:25N 40°36' E 028°01'4 9.6
2018-Apr-30 23:00N 40°35' E 027°55'5 9.7
2018-Apr-30 22:30N 40°35' E 027°49'88 8.4
2018-Apr-30 12:00N 39°55' E 026°07'  
Track history (hours):
 
Tides and Currents Weather Stations Pressure Air Temp Water Temp Dewpoint Dewpoint Depression Visibility Wind Speed Wind Dir Waves Ship Positions

Cemal Kaptan

Last reported at 2018-May-07 14:31 UTC. Time now 2018-May-20 10:25 UTC.
Position N 40°51' E 029°16'.
Warning: this ship's position is 12 days out of date.

Length 107 m; draft 3.8 m.

Type: Cargo ship. MMSI: 271002256.

Date/timePositionNaut miles runAvg speedWind from/ knotsBaromVisibWave heightAir tempDewpointWater temp
2018-May-07 14:31N 40°51' E 029°16'0 0.0
2018-May-07 14:28N 40°51' E 029°16'0 0.0
2018-May-07 14:00N 40°51' E 029°16'0 0.7
2018-May-07 13:30N 40°51' E 029°16'2 4.8
2018-May-07 13:00N 40°50' E 029°13'510.8
2018-May-07 12:30N 40°47' E 029°07'611.5
2018-May-07 11:58N 40°43' E 029°01'610.9
2018-May-07 11:26N 40°41' E 028°54'  
2018-May-02 09:25N 39°32' E 025°58'138 4.4
2018-May-01 02:17N 40°40' E 028°36'5 9.5
2018-May-01 01:49N 40°39' E 028°30'3 9.4
2018-May-01 01:30N 40°39' E 028°26'5 9.5
2018-May-01 01:00N 40°38' E 028°20'5 9.3
2018-May-01 00:29N 40°37' E 028°14'4 9.2
2018-May-01 00:00N 40°37' E 028°08'5 9.4
2018-Apr-30 23:25N 40°36' E 028°01'4 9.6
2018-Apr-30 23:00N 40°35' E 027°55'5 9.7
2018-Apr-30 22:30N 40°35' E 027°49'88 8.4
2018-Apr-30 12:00N 39°55' E 026°07'  

Dump ship's entire track history